createdAt,value
2022-12-15T00:00:02.172Z,23.20
2022-12-15T00:02:49.076Z,22.33
2022-12-15T00:05:34.670Z,21.60
2022-12-15T00:08:25.968Z,21.23
2022-12-15T00:11:11.572Z,20.20
2022-12-15T00:13:57.607Z,21.30
2022-12-15T00:16:43.445Z,22.23
2022-12-15T00:19:30.326Z,24.00
2022-12-15T00:22:15.852Z,22.40
2022-12-15T00:25:01.230Z,21.20
2022-12-15T00:27:46.512Z,22.40
2022-12-15T00:30:34.271Z,21.80
2022-12-15T00:33:25.265Z,22.30
2022-12-15T00:36:12.979Z,22.20
2022-12-15T00:38:44.664Z,20.97
2022-12-15T00:41:13.552Z,22.70
2022-12-15T00:43:41.934Z,19.83
2022-12-15T00:46:28.085Z,23.37
2022-12-15T00:48:56.620Z,20.20
2022-12-15T00:51:44.426Z,21.50
2022-12-15T00:54:30.339Z,22.20
2022-12-15T00:57:16.050Z,20.73
2022-12-15T01:00:01.427Z,21.57
2022-12-15T01:02:47.214Z,21.20
2022-12-15T01:05:33.186Z,20.13
2022-12-15T01:08:20.182Z,20.80
2022-12-15T01:11:05.765Z,22.20
2022-12-15T01:13:51.008Z,20.60
2022-12-15T01:16:36.556Z,21.30
2022-12-15T01:19:22.128Z,22.57
2022-12-15T01:21:51.058Z,22.60
2022-12-15T01:24:23.726Z,22.67
2022-12-15T01:26:52.306Z,21.63
2022-12-15T01:29:20.418Z,22.40
2022-12-15T01:31:50.965Z,23.45
2022-12-15T01:34:20.264Z,22.77
2022-12-15T01:36:48.658Z,21.00
2022-12-15T01:39:17.172Z,20.93
2022-12-15T01:41:45.744Z,21.90
2022-12-15T01:44:19.960Z,23.60
2022-12-15T01:46:49.662Z,23.27
2022-12-15T01:49:22.331Z,20.38
2022-12-15T01:51:54.427Z,22.10
2022-12-15T01:54:24.965Z,22.67
2022-12-15T01:56:58.349Z,20.17
2022-12-15T01:59:31.216Z,22.05
2022-12-15T02:01:59.711Z,21.67
2022-12-15T02:04:28.312Z,22.90
2022-12-15T02:06:56.578Z,22.73
2022-12-15T02:09:26.845Z,21.37
2022-12-15T02:12:13.411Z,19.53
2022-12-15T02:14:52.103Z,20.63
2022-12-15T02:17:29.624Z,21.03
2022-12-15T02:20:34.226Z,21.60
2022-12-15T02:23:35.593Z,20.53
2022-12-15T02:26:24.357Z,19.97
2022-12-15T02:29:10.531Z,19.90
2022-12-15T02:31:51.426Z,20.57
2022-12-15T02:34:27.941Z,22.10
2022-12-15T02:37:00.119Z,23.93
2022-12-15T02:39:28.333Z,20.97
2022-12-15T02:41:56.648Z,22.20
2022-12-15T02:44:29.612Z,21.43
2022-12-15T02:47:23.115Z,22.67
2022-12-15T02:50:11.730Z,19.47
2022-12-15T02:52:53.156Z,20.10
2022-12-15T02:55:30.000Z,20.63
2022-12-15T02:58:04.032Z,19.83
2022-12-15T03:00:39.013Z,20.17
2022-12-15T03:03:09.652Z,21.00
2022-12-15T03:05:38.327Z,22.70
2022-12-15T03:08:06.545Z,21.53
2022-12-15T03:10:36.673Z,18.93
2022-12-15T03:13:04.941Z,21.83
2022-12-15T03:15:35.548Z,19.30
2022-12-15T03:18:04.086Z,21.10
2022-12-15T03:20:33.966Z,22.33
2022-12-15T03:23:02.701Z,20.63
2022-12-15T03:25:33.393Z,21.08
2022-12-15T03:28:01.559Z,22.27
2022-12-15T03:30:29.846Z,20.98
2022-12-15T03:32:58.042Z,21.03
2022-12-15T03:35:26.308Z,22.47
2022-12-15T03:37:55.885Z,21.60
2022-12-15T03:40:24.031Z,22.50
2022-12-15T03:42:52.905Z,22.13
2022-12-15T03:45:23.685Z,21.30
2022-12-15T03:47:55.933Z,20.03
2022-12-15T03:50:26.152Z,20.40
2022-12-15T03:52:57.483Z,22.57
2022-12-15T03:55:26.380Z,20.43
2022-12-15T03:57:54.620Z,21.77
2022-12-15T04:00:24.707Z,21.30
2022-12-15T04:02:53.294Z,20.33
2022-12-15T04:05:25.864Z,20.80
2022-12-15T04:07:56.538Z,21.83
2022-12-15T04:10:30.238Z,19.57
2022-12-15T04:13:03.224Z,23.73
2022-12-15T04:15:31.655Z,23.23
2022-12-15T04:17:59.808Z,21.97
2022-12-15T04:20:26.954Z,21.10
2022-12-15T04:22:56.607Z,22.57
2022-12-15T04:25:44.006Z,21.70
2022-12-15T04:28:31.009Z,21.13
2022-12-15T04:31:20.927Z,21.07
2022-12-15T04:34:09.908Z,23.63
2022-12-15T04:36:57.590Z,23.10
2022-12-15T04:39:44.436Z,21.27
2022-12-15T04:42:30.080Z,23.07
2022-12-15T04:45:20.974Z,23.13
2022-12-15T04:48:06.768Z,23.10
2022-12-15T04:50:52.285Z,21.97
2022-12-15T04:53:39.078Z,22.40
2022-12-15T04:56:29.125Z,22.00
2022-12-15T04:59:15.157Z,21.60
2022-12-15T05:02:01.602Z,21.73
2022-12-15T05:04:49.887Z,23.10
2022-12-15T05:07:35.364Z,22.40
2022-12-15T05:10:21.425Z,21.63
2022-12-15T05:13:08.373Z,20.70
2022-12-15T05:15:54.105Z,18.98
2022-12-15T05:18:40.434Z,21.52
2022-12-15T05:21:26.008Z,21.10
2022-12-15T05:24:11.795Z,21.00
2022-12-15T05:26:57.051Z,21.50
2022-12-15T05:29:43.977Z,21.53
2022-12-15T05:32:13.219Z,21.53
2022-12-15T05:34:41.479Z,20.98
2022-12-15T05:37:09.817Z,19.95
2022-12-15T05:39:38.101Z,19.05
2022-12-15T05:42:06.594Z,19.30
2022-12-15T05:44:36.345Z,20.33
2022-12-15T05:47:05.038Z,20.87
2022-12-15T05:49:33.498Z,20.83
2022-12-15T05:52:01.740Z,20.73
2022-12-15T05:54:30.018Z,19.90
2022-12-15T05:56:58.249Z,20.15
2022-12-15T05:59:26.512Z,21.30
2022-12-15T06:01:56.272Z,20.03
2022-12-15T06:04:24.869Z,21.35
2022-12-15T06:06:53.145Z,20.75
2022-12-15T06:09:21.343Z,21.70
2022-12-15T06:11:49.765Z,20.88
2022-12-15T06:14:18.112Z,21.93
2022-12-15T06:16:50.201Z,21.48
2022-12-15T06:19:21.309Z,21.13
2022-12-15T06:21:49.560Z,19.35
2022-12-15T06:24:18.275Z,20.33
2022-12-15T06:26:46.731Z,21.65
2022-12-15T06:29:18.533Z,19.80
2022-12-15T06:31:46.991Z,19.05
2022-12-15T06:34:17.591Z,20.75
2022-12-15T06:36:47.468Z,19.42
2022-12-15T06:39:17.004Z,20.60
2022-12-15T06:41:45.600Z,19.58
2022-12-15T06:44:15.811Z,21.50
2022-12-15T06:46:45.871Z,20.40
2022-12-15T06:49:14.697Z,19.95
2022-12-15T06:51:44.355Z,20.90
2022-12-15T06:54:14.308Z,22.50
2022-12-15T06:56:42.761Z,21.60
2022-12-15T06:59:12.522Z,20.90
2022-12-15T07:01:41.930Z,20.58
2022-12-15T07:04:11.652Z,23.93
2022-12-15T07:06:41.040Z,23.08
2022-12-15T07:09:16.106Z,21.87
2022-12-15T07:11:45.349Z,20.43
2022-12-15T07:14:13.702Z,23.00
2022-12-15T07:16:42.137Z,21.70
2022-12-15T07:19:13.033Z,21.23
2022-12-15T07:21:42.588Z,19.73
2022-12-15T07:24:14.027Z,20.47
2022-12-15T07:26:43.356Z,20.30
2022-12-15T07:29:16.896Z,20.53
2022-12-15T07:31:48.124Z,20.33
2022-12-15T07:34:16.375Z,20.92
2022-12-15T07:36:51.532Z,19.30
2022-12-15T07:39:22.121Z,19.03
2022-12-15T07:41:50.577Z,18.25
2022-12-15T07:44:18.871Z,21.63
2022-12-15T07:46:49.446Z,19.93
2022-12-15T07:49:18.226Z,19.87
2022-12-15T07:51:46.775Z,18.60
2022-12-15T07:54:15.901Z,20.90
2022-12-15T07:56:50.328Z,20.33
2022-12-15T07:59:19.910Z,20.97
2022-12-15T08:01:48.572Z,18.90
2022-12-15T08:04:17.087Z,19.90
2022-12-15T08:06:45.559Z,17.92
2022-12-15T08:09:13.887Z,19.50
2022-12-15T08:11:42.239Z,18.88
2022-12-15T08:14:17.006Z,20.63
2022-12-15T08:16:46.557Z,19.73
2022-12-15T08:19:16.957Z,19.63
2022-12-15T08:21:46.882Z,20.25
2022-12-15T08:24:15.788Z,18.50
2022-12-15T08:26:45.035Z,19.67
2022-12-15T08:32:08.850Z,19.03
2022-12-15T08:34:37.308Z,20.88
2022-12-15T08:37:05.467Z,21.40
2022-12-15T08:39:33.727Z,21.02
2022-12-15T08:42:01.940Z,20.80
2022-12-15T08:44:31.830Z,21.80
2022-12-15T08:47:00.163Z,20.92
2022-12-15T08:49:28.479Z,23.02
2022-12-15T08:51:56.806Z,21.70
2022-12-15T08:54:25.145Z,21.85
2022-12-15T08:56:53.440Z,21.35
2022-12-15T08:59:21.675Z,22.10
2022-12-15T09:01:51.505Z,21.27
2022-12-15T09:04:20.297Z,19.95
2022-12-15T09:06:50.737Z,21.35
2022-12-15T09:09:19.891Z,21.10
2022-12-15T09:11:48.160Z,21.05
2022-12-15T09:14:16.396Z,23.33
2022-12-15T09:16:44.803Z,23.95
2022-12-15T09:19:14.934Z,21.98
2022-12-15T09:21:45.066Z,20.67
2022-12-15T09:24:23.229Z,23.80
2022-12-15T09:26:57.604Z,19.80
2022-12-15T09:29:25.856Z,21.80
2022-12-15T09:31:54.039Z,21.65
2022-12-15T09:34:23.767Z,23.38
2022-12-15T09:36:52.195Z,24.67
2022-12-15T09:39:20.520Z,23.77
2022-12-15T09:41:55.184Z,25.33
2022-12-15T09:44:25.850Z,23.33
2022-12-15T09:47:08.297Z,22.63
2022-12-15T09:49:52.253Z,23.08
2022-12-15T09:52:23.805Z,24.00
2022-12-15T09:54:52.515Z,22.35
2022-12-15T09:57:27.733Z,23.23
2022-12-15T10:00:16.959Z,23.42
2022-12-15T10:03:20.940Z,21.58
2022-12-15T10:09:20.876Z,22.05
2022-12-15T10:11:53.287Z,22.92
2022-12-15T10:14:28.547Z,25.67
2022-12-15T10:17:06.481Z,23.08
2022-12-15T10:19:40.596Z,23.83
2022-12-15T10:22:15.083Z,23.85
2022-12-15T10:27:47.570Z,23.67
2022-12-15T10:30:18.203Z,23.77
2022-12-15T10:32:51.454Z,26.05
2022-12-15T10:35:24.530Z,25.02
2022-12-15T10:37:54.898Z,26.48
2022-12-15T10:40:45.433Z,26.33
2022-12-15T10:43:34.780Z,24.45
2022-12-15T10:46:06.809Z,26.23
2022-12-15T10:48:35.146Z,26.23
2022-12-15T10:51:16.640Z,25.67
2022-12-15T10:53:50.433Z,26.73
2022-12-15T10:56:28.831Z,24.58
2022-12-15T10:59:03.662Z,25.23
2022-12-15T11:01:34.760Z,28.27
2022-12-15T11:04:03.226Z,25.77
2022-12-15T11:06:34.180Z,27.02
2022-12-15T11:09:20.089Z,26.20
2022-12-15T11:12:11.951Z,25.60
2022-12-15T11:14:46.341Z,25.48
2022-12-15T11:17:21.035Z,24.70
2022-12-15T11:19:59.974Z,24.92
2022-12-15T11:22:38.974Z,25.13
2022-12-15T11:25:21.154Z,26.15
2022-12-15T11:27:51.734Z,22.83
2022-12-15T11:30:22.325Z,24.35
2022-12-15T11:32:55.150Z,24.17
2022-12-15T11:35:28.874Z,23.38
2022-12-15T11:38:04.657Z,25.40
2022-12-15T11:40:40.861Z,25.77
2022-12-15T11:43:32.369Z,24.35
2022-12-15T11:46:28.995Z,22.95
2022-12-15T11:49:15.348Z,22.98
2022-12-15T11:51:50.864Z,25.83
2022-12-15T11:54:28.510Z,25.60
2022-12-15T11:57:05.699Z,25.35
2022-12-15T12:00:03.058Z,22.98
2022-12-15T12:03:06.784Z,23.88
2022-12-15T12:05:45.360Z,21.45
2022-12-15T12:08:28.017Z,21.92
2022-12-15T12:11:02.744Z,24.80
2022-12-15T12:13:41.566Z,21.70
2022-12-15T12:16:19.711Z,25.60
2022-12-15T12:18:56.199Z,24.20
2022-12-15T12:21:28.138Z,24.25
2022-12-15T12:24:01.811Z,25.38
2022-12-15T12:26:34.053Z,25.63
2022-12-15T12:29:09.419Z,25.00
2022-12-15T12:31:50.852Z,25.00
2022-12-15T12:34:23.890Z,24.13
2022-12-15T12:36:54.092Z,24.75
2022-12-15T12:39:25.941Z,25.38
2022-12-15T12:42:01.791Z,24.58
2022-12-15T12:44:34.989Z,24.70
2022-12-15T12:47:10.272Z,27.10
2022-12-15T12:49:43.184Z,23.58
2022-12-15T12:52:22.204Z,24.05
2022-12-15T12:54:58.056Z,25.13
2022-12-15T12:57:41.762Z,24.85
2022-12-15T13:00:24.156Z,26.17
2022-12-15T13:03:17.967Z,25.05
2022-12-15T13:05:51.682Z,24.25
2022-12-15T13:08:52.382Z,25.00
2022-12-15T13:11:57.473Z,26.67
2022-12-15T13:14:48.195Z,26.02
2022-12-15T13:17:28.752Z,23.75
2022-12-15T13:20:24.326Z,24.77
2022-12-15T13:22:52.787Z,25.88
2022-12-15T13:25:51.892Z,27.55
2022-12-15T13:28:31.396Z,26.73
2022-12-15T13:31:27.895Z,28.48
2022-12-15T13:34:23.207Z,28.65
2022-12-15T13:37:01.937Z,27.30
2022-12-15T13:39:35.971Z,30.55
2022-12-15T13:42:37.273Z,29.98
2022-12-15T13:45:40.433Z,31.40
2022-12-15T13:48:31.090Z,29.77
2022-12-15T13:51:25.261Z,31.30
2022-12-15T13:53:59.530Z,29.35
2022-12-15T13:56:54.296Z,32.03
2022-12-15T13:59:30.619Z,30.92
2022-12-15T14:01:58.983Z,33.13
2022-12-15T14:04:28.865Z,33.28
2022-12-15T14:07:02.090Z,33.42
2022-12-15T14:09:33.732Z,33.78
2022-12-15T14:12:03.959Z,34.15
2022-12-15T14:14:35.213Z,33.38
2022-12-15T14:17:07.823Z,32.72
2022-12-15T14:19:41.388Z,32.45
2022-12-15T14:22:28.766Z,33.50
2022-12-15T14:25:03.645Z,32.88
2022-12-15T14:27:35.858Z,32.50
2022-12-15T14:30:22.326Z,30.73
2022-12-15T14:32:54.673Z,32.40
2022-12-15T14:35:28.967Z,33.25
2022-12-15T14:38:01.457Z,31.67
2022-12-15T14:40:30.445Z,31.75
2022-12-15T14:42:59.078Z,33.55
2022-12-15T14:45:29.662Z,32.08
2022-12-15T14:50:51.180Z,33.00
2022-12-15T14:53:23.091Z,35.50
2022-12-15T14:55:51.627Z,33.40
2022-12-15T14:58:33.718Z,34.80
2022-12-15T15:01:04.226Z,34.17
2022-12-15T15:03:11.747Z,23.77
2022-12-15T15:03:38.462Z,34.22
2022-12-15T15:06:17.164Z,33.92
2022-12-15T15:08:49.106Z,34.05
2022-12-15T15:11:26.943Z,30.90
2022-12-15T15:13:57.524Z,35.30
2022-12-15T15:16:25.803Z,35.13
2022-12-15T15:18:56.056Z,32.77
2022-12-15T15:21:27.401Z,33.97
2022-12-15T15:24:02.317Z,33.03
2022-12-15T15:26:31.997Z,31.08
2022-12-15T15:29:00.453Z,31.55
2022-12-15T15:31:40.338Z,33.55
2022-12-15T15:34:09.944Z,31.75
2022-12-15T15:36:39.918Z,31.80
2022-12-15T15:39:16.366Z,29.60
2022-12-15T15:41:44.795Z,32.25
2022-12-15T15:44:14.868Z,32.22
2022-12-15T15:46:47.943Z,33.80
2022-12-15T15:49:18.804Z,38.28
2022-12-15T15:51:47.203Z,32.88
2022-12-15T15:54:24.284Z,35.35
2022-12-15T15:56:52.419Z,33.95
2022-12-15T15:59:22.381Z,32.70
2022-12-15T16:01:54.680Z,34.25
2022-12-15T16:04:23.302Z,36.35
2022-12-15T16:06:52.009Z,34.95
2022-12-15T16:09:22.008Z,34.20
2022-12-15T16:11:50.815Z,35.25
2022-12-15T16:14:19.568Z,33.33
2022-12-15T16:16:50.758Z,36.23
2022-12-15T16:19:19.075Z,35.30
2022-12-15T16:21:51.022Z,37.60
2022-12-15T16:24:20.142Z,35.97
2022-12-15T16:26:51.850Z,34.40
2022-12-15T16:29:21.832Z,34.75
2022-12-15T16:31:50.574Z,37.30
2022-12-15T16:34:19.453Z,33.45
2022-12-15T16:36:47.937Z,33.38
2022-12-15T16:39:28.426Z,35.20
2022-12-15T16:41:58.607Z,33.90
2022-12-15T16:44:29.337Z,33.50
2022-12-15T16:46:58.929Z,34.92
2022-12-15T16:49:33.891Z,34.87
2022-12-15T16:52:06.302Z,33.92
2022-12-15T16:54:34.849Z,36.78
2022-12-15T16:57:05.679Z,34.30
2022-12-15T16:59:35.337Z,34.70
2022-12-15T17:02:17.923Z,32.43
2022-12-15T17:04:46.171Z,33.47
2022-12-15T17:07:20.050Z,33.60
2022-12-15T17:09:49.403Z,33.47
2022-12-15T17:12:20.103Z,34.95
2022-12-15T17:14:48.406Z,31.45
2022-12-15T17:17:18.419Z,34.67
2022-12-15T17:22:35.281Z,34.77
2022-12-15T17:25:03.499Z,34.03
2022-12-15T17:27:33.341Z,37.63
2022-12-15T17:30:02.564Z,37.88
2022-12-15T17:32:30.688Z,36.50
2022-12-15T17:34:58.903Z,38.05
2022-12-15T17:37:33.473Z,34.30
2022-12-15T17:40:04.597Z,37.20
2022-12-15T17:42:34.384Z,36.93
2022-12-15T17:45:02.611Z,36.70
2022-12-15T17:47:31.112Z,39.17
2022-12-15T17:49:59.386Z,37.05
2022-12-15T17:52:30.355Z,34.27
2022-12-15T17:54:59.083Z,36.13
2022-12-15T17:57:27.615Z,36.83
2022-12-15T17:59:57.453Z,34.45
2022-12-15T18:02:25.967Z,35.42
2022-12-15T18:04:55.307Z,38.05
2022-12-15T18:07:24.949Z,38.83
2022-12-15T18:09:54.256Z,36.72
2022-12-15T18:12:24.968Z,36.38
2022-12-15T18:14:56.234Z,37.47
2022-12-15T18:17:26.010Z,38.17
2022-12-15T18:19:54.251Z,36.50
2022-12-15T18:22:24.248Z,36.67
2022-12-15T18:24:54.474Z,38.77
2022-12-15T18:27:25.231Z,36.17
2022-12-15T18:29:53.838Z,37.33
2022-12-15T18:32:25.488Z,37.30
2022-12-15T18:34:55.987Z,38.53
2022-12-15T18:37:25.915Z,38.07
2022-12-15T18:39:57.143Z,35.43
2022-12-15T18:42:29.117Z,36.30
2022-12-15T18:44:58.812Z,35.47
2022-12-15T18:47:27.872Z,36.27
2022-12-15T18:49:57.540Z,36.47
2022-12-15T18:52:31.489Z,32.80
2022-12-15T18:55:03.126Z,34.10
2022-12-15T18:57:33.076Z,34.50
2022-12-15T19:00:05.803Z,32.10
2022-12-15T19:02:34.011Z,33.33
2022-12-15T19:05:03.848Z,31.30
2022-12-15T19:07:32.482Z,33.13
2022-12-15T19:10:01.174Z,31.30
2022-12-15T19:12:29.582Z,30.77
2022-12-15T19:14:57.785Z,33.53
2022-12-15T19:17:43.241Z,31.55
2022-12-15T19:20:35.426Z,31.05
2022-12-15T19:23:03.907Z,31.05
2022-12-15T19:25:33.285Z,29.25
2022-12-15T19:28:02.294Z,30.00
2022-12-15T19:30:36.921Z,30.03
2022-12-15T19:33:08.483Z,30.27
2022-12-15T19:35:39.437Z,28.50
2022-12-15T19:38:08.498Z,34.03
2022-12-15T19:40:38.466Z,29.93
2022-12-15T19:43:07.309Z,30.33
2022-12-15T19:45:35.432Z,29.93
2022-12-15T19:48:03.681Z,30.07
2022-12-15T19:50:36.319Z,29.77
2022-12-15T19:53:12.948Z,30.33
2022-12-15T19:55:41.942Z,28.97
2022-12-15T19:58:27.824Z,32.33
2022-12-15T20:00:57.973Z,31.03
2022-12-15T20:03:26.964Z,33.37
2022-12-15T20:05:57.451Z,32.57
2022-12-15T20:08:28.774Z,32.30
2022-12-15T20:10:57.604Z,33.03
2022-12-15T20:13:27.248Z,34.37
2022-12-15T20:15:56.814Z,31.10
2022-12-15T20:18:25.125Z,35.27
2022-12-15T20:20:59.167Z,34.07
2022-12-15T20:23:32.144Z,35.17
2022-12-15T20:26:01.329Z,34.03
2022-12-15T20:28:54.328Z,34.40
2022-12-15T20:31:25.141Z,36.30
2022-12-15T20:33:54.930Z,35.20
2022-12-15T20:36:25.466Z,36.20
2022-12-15T20:38:57.953Z,33.23
2022-12-15T20:41:42.256Z,34.93
2022-12-15T20:44:13.342Z,34.17
2022-12-15T20:46:41.938Z,33.33
2022-12-15T20:49:17.725Z,34.70
2022-12-15T20:51:47.607Z,35.25
2022-12-15T20:54:20.608Z,36.67
2022-12-15T20:56:49.998Z,32.08
2022-12-15T20:59:20.257Z,33.42
2022-12-15T21:01:48.626Z,35.50
2022-12-15T21:04:25.501Z,34.77
2022-12-15T21:07:00.586Z,35.10
2022-12-15T21:09:30.365Z,34.83
2022-12-15T21:12:01.986Z,32.27
2022-12-15T21:14:32.838Z,30.90
2022-12-15T21:17:01.088Z,32.13
2022-12-15T21:19:35.461Z,34.97
2022-12-15T21:22:04.250Z,33.57
2022-12-15T21:24:35.562Z,32.73
2022-12-15T21:27:07.634Z,34.87
2022-12-15T21:29:36.491Z,37.73
2022-12-15T21:32:05.036Z,35.03
2022-12-15T21:34:35.550Z,33.70
2022-12-15T21:37:04.659Z,34.67
2022-12-15T21:39:37.677Z,33.50
2022-12-15T21:42:09.453Z,35.53
2022-12-15T21:44:37.804Z,35.00
2022-12-15T21:47:23.308Z,33.07
2022-12-15T21:49:51.084Z,33.47
2022-12-15T21:52:22.971Z,36.00
2022-12-15T21:54:53.401Z,40.10
2022-12-15T21:57:23.855Z,37.33
2022-12-15T21:59:51.977Z,37.67
2022-12-15T22:02:25.886Z,35.63
2022-12-15T22:04:55.057Z,36.40
2022-12-15T22:07:23.390Z,36.67
2022-12-15T22:09:53.371Z,37.57
2022-12-15T22:12:24.532Z,37.07
2022-12-15T22:14:52.905Z,38.37
2022-12-15T22:17:22.992Z,40.00
2022-12-15T22:19:51.181Z,37.03
2022-12-15T22:22:24.661Z,37.17
2022-12-15T22:24:58.801Z,36.47
2022-12-15T22:27:27.499Z,37.00
2022-12-15T22:29:56.736Z,39.83
2022-12-15T22:32:25.085Z,38.13
2022-12-15T22:34:53.505Z,37.63
2022-12-15T22:37:21.651Z,37.00
2022-12-15T22:39:50.878Z,38.97
2022-12-15T22:42:21.758Z,35.87
2022-12-15T22:44:50.062Z,35.92
2022-12-15T22:47:18.406Z,38.33
2022-12-15T22:49:48.804Z,36.87
2022-12-15T22:52:19.216Z,37.43
2022-12-15T22:54:47.916Z,35.20
2022-12-15T22:57:24.285Z,36.53
2022-12-15T23:00:00.620Z,37.30
2022-12-15T23:02:39.407Z,34.17
2022-12-15T23:05:08.846Z,33.43
2022-12-15T23:07:37.226Z,35.83
2022-12-15T23:10:24.279Z,34.70
2022-12-15T23:12:54.948Z,35.00
2022-12-15T23:15:41.517Z,34.97
2022-12-15T23:18:10.109Z,32.03
2022-12-15T23:20:38.677Z,31.73
2022-12-15T23:23:07.227Z,33.90
2022-12-15T23:25:35.441Z,30.80
2022-12-15T23:28:05.570Z,31.50
2022-12-15T23:30:33.832Z,30.67
2022-12-15T23:33:02.383Z,30.33
2022-12-15T23:35:30.681Z,27.73
2022-12-15T23:37:59.009Z,28.63
2022-12-15T23:40:27.381Z,27.10
2022-12-15T23:42:55.732Z,28.73
2022-12-15T23:45:25.772Z,26.75
2022-12-15T23:47:54.212Z,26.60
2022-12-15T23:50:22.487Z,28.97
2022-12-15T23:52:51.943Z,28.03
2022-12-15T23:55:20.521Z,27.37
2022-12-15T23:57:48.830Z,24.60
